Time;durP1;ratioP1;P1;durP2;ratioP2;P2;SDS_P1;SDS_P2;PMS_P1;PMS_P2;Temp;Humidity;BMP_temperature;BMP_pressure;BME280_temperature;BME280_humidity;BME280_pressure;Samples;Min_cycle;Max_cycle;Signal;HPM_P1;HPM_P2
2021/12/17 00:07:00;;;;;;;0.28;0.28;;;19.10;59.60;;;;;;4988944;28;20424;-70
2021/12/17 00:09:25;;;;;;;0.40;0.40;;;19.00;59.60;;;;;;4994797;28;20477;-70
2021/12/17 00:11:51;;;;;;;0.40;0.40;;;19.10;60.60;;;;;;5008586;28;20018;-70
2021/12/17 00:14:25;;;;;;;0.30;0.30;;;19.00;59.60;;;;;;4999631;28;20026;-70
2021/12/17 00:16:52;;;;;;;0.75;0.40;;;19.00;59.60;;;;;;4988254;28;20014;-70
2021/12/17 00:19:36;;;;;;;0.30;0.30;;;19.00;59.60;;;;;;5004221;28;20056;-70
2021/12/17 00:49:30;;;;;;;0.30;0.30;;;18.90;59.90;;;;;;4997542;28;20033;-69
2021/12/17 00:52:01;;;;;;;0.45;0.45;;;18.90;59.90;;;;;;5010686;28;20023;-70
2021/12/17 00:54:39;;;;;;;0.30;0.30;;;18.80;59.80;;;;;;4999416;28;20029;-70
2021/12/17 00:57:17;;;;;;;0.20;0.20;;;18.90;60.00;;;;;;4998109;28;20057;-70
2021/12/17 00:59:48;;;;;;;0.30;0.30;;;18.90;60.00;;;;;;4982211;28;20034;-70
2021/12/17 01:02:15;;;;;;;0.32;0.30;;;18.90;60.00;;;;;;5014304;28;20026;-70
2021/12/17 01:04:43;;;;;;;0.40;0.40;;;18.80;59.90;;;;;;5015078;28;20038;-70
2021/12/17 01:07:09;;;;;;;0.20;0.20;;;18.90;60.00;;;;;;5014429;28;20026;-69
2021/12/17 01:09:35;;;;;;;0.40;0.40;;;18.80;60.00;;;;;;5013284;28;20121;-70
2021/12/17 01:12:00;;;;;;;0.30;0.30;;;18.80;60.00;;;;;;4982825;28;20038;-70
2021/12/17 01:14:27;;;;;;;0.30;0.30;;;18.80;60.00;;;;;;4982162;28;20030;-70
2021/12/17 01:16:54;;;;;;;0.38;0.38;;;18.90;60.00;;;;;;4996776;28;20018;-70
2021/12/17 01:22:12;;;;;;;0.57;0.30;;;18.80;60.00;;;;;;5012058;28;20472;-70
2021/12/17 01:35:29;;;;;;;0.40;0.40;;;18.80;60.10;;;;;;5015557;28;20037;-70
2021/12/17 01:43:30;;;;;;;0.40;0.40;;;18.70;60.20;;;;;;4999313;28;20494;-70
2021/12/17 01:45:56;;;;;;;0.30;0.30;;;18.80;60.30;;;;;;5013765;28;20026;-70
2021/12/17 01:48:28;;;;;;;0.30;0.30;;;18.80;60.20;;;;;;4997304;28;20030;-70
2021/12/17 02:01:36;;;;;;;0.30;0.30;;;18.70;60.20;;;;;;4997394;28;20084;-70
2021/12/17 02:04:03;;;;;;;0.30;0.30;;;18.70;60.40;;;;;;4998964;28;20018;-70
2021/12/17 02:06:30;;;;;;;0.30;0.30;;;18.70;60.30;;;;;;5007281;28;20092;-70
2021/12/17 02:08:58;;;;;;;0.40;0.40;;;18.70;60.40;;;;;;5003518;28;20022;-70
2021/12/17 02:19:58;;;;;;;0.50;0.30;;;18.70;60.40;;;;;;5001275;28;20391;-70
2021/12/17 02:23:19;;;;;;;0.77;0.40;;;18.70;60.40;;;;;;4994922;28;20022;-70
2021/12/17 02:33:15;;;;;;;0.40;0.38;;;18.70;60.50;;;;;;5006631;28;20543;-70
2021/12/17 02:35:44;;;;;;;0.22;0.22;;;18.70;60.50;;;;;;4996423;28;20109;-70
2021/12/17 02:38:11;;;;;;;0.35;0.35;;;18.70;60.50;;;;;;5008711;28;20076;-70
2021/12/17 02:45:48;;;;;;;0.60;0.50;;;18.70;60.60;;;;;;5008581;28;20030;-70
2021/12/17 02:48:15;;;;;;;0.75;0.45;;;18.70;60.60;;;;;;4981026;28;20010;-70
2021/12/17 02:50:45;;;;;;;0.57;0.40;;;18.70;60.60;;;;;;4988469;28;20069;-70
2021/12/17 02:53:11;;;;;;;0.20;0.20;;;18.70;60.60;;;;;;5004486;28;20114;-70
2021/12/17 02:55:40;;;;;;;0.65;0.30;;;18.70;60.70;;;;;;5002631;28;20247;-70
2021/12/17 02:58:05;;;;;;;0.30;0.30;;;18.70;60.70;;;;;;5008947;28;20018;-70
2021/12/17 03:00:32;;;;;;;0.55;0.30;;;18.70;60.70;;;;;;4982593;28;20024;-70
2021/12/17 03:02:58;;;;;;;0.45;0.30;;;18.70;60.70;;;;;;4993966;28;20028;-70
2021/12/17 03:05:24;;;;;;;0.85;0.40;;;18.70;60.70;;;;;;4991125;28;20128;-70
2021/12/17 03:07:50;;;;;;;0.30;0.20;;;18.70;60.70;;;;;;5011749;28;20018;-70
2021/12/17 03:10:16;;;;;;;0.20;0.20;;;18.70;60.70;;;;;;4995737;28;20065;-70
2021/12/17 03:12:49;;;;;;;0.30;0.30;;;18.70;60.70;;;;;;4997869;28;20046;-70
2021/12/17 03:25:52;;;;;;;0.57;0.40;;;18.70;60.80;;;;;;5002748;28;20030;-70
2021/12/17 03:28:18;;;;;;;0.60;0.30;;;18.70;60.80;;;;;;5007880;28;20014;-70
2021/12/17 03:30:45;;;;;;;0.45;0.45;;;18.70;60.80;;;;;;5012354;28;20109;-69
2021/12/17 03:33:10;;;;;;;0.20;0.20;;;18.70;60.80;;;;;;5011616;28;20611;-69
2021/12/17 03:35:36;;;;;;;0.30;0.30;;;18.70;60.80;;;;;;5011607;28;20109;-70
2021/12/17 03:38:02;;;;;;;0.30;0.30;;;18.70;60.90;;;;;;5011422;28;20033;-70
2021/12/17 03:40:31;;;;;;;0.40;0.40;;;18.60;60.80;;;;;;5012010;28;20024;-70
2021/12/17 03:43:02;;;;;;;0.30;0.30;;;18.60;60.90;;;;;;5011039;28;20022;-70
2021/12/17 03:45:27;;;;;;;0.30;0.30;;;18.70;60.90;;;;;;5012440;28;20054;-70
2021/12/17 03:47:53;;;;;;;0.20;0.20;;;18.60;60.90;;;;;;5003349;28;20058;-69
2021/12/17 03:50:19;;;;;;;0.35;0.20;;;18.60;60.90;;;;;;5002904;28;20026;-70
2021/12/17 03:52:44;;;;;;;0.15;0.15;;;18.60;60.90;;;;;;4986535;28;20029;-69
2021/12/17 03:55:10;;;;;;;0.30;0.30;;;18.60;60.90;;;;;;5003335;28;20113;-70
2021/12/17 03:57:36;;;;;;;2.08;0.52;;;18.60;60.90;;;;;;5004304;28;20022;-70
2021/12/17 04:00:04;;;;;;;0.30;0.30;;;18.60;61.10;;;;;;5001346;28;20022;-69
2021/12/17 04:02:30;;;;;;;1.42;0.30;;;18.60;61.00;;;;;;5004217;28;20025;-70
2021/12/17 04:04:56;;;;;;;0.30;0.30;;;18.60;61.00;;;;;;5002069;28;20022;-70
2021/12/17 04:07:21;;;;;;;0.47;0.47;;;18.60;61.10;;;;;;5012668;28;20117;-69
2021/12/17 04:09:47;;;;;;;0.52;0.40;;;18.60;61.00;;;;;;5005578;28;20065;-69
2021/12/17 04:12:16;;;;;;;0.30;0.30;;;18.60;61.00;;;;;;5003167;28;20532;-69
2021/12/17 04:14:47;;;;;;;0.30;0.30;;;18.60;62.00;;;;;;4996309;28;20084;-69
2021/12/17 04:17:15;;;;;;;0.75;0.35;;;18.60;61.10;;;;;;4994588;28;20030;-70
2021/12/17 04:19:41;;;;;;;0.30;0.30;;;18.60;61.10;;;;;;4980179;28;20026;-70
2021/12/17 04:22:07;;;;;;;2.08;0.30;;;18.60;61.10;;;;;;4995785;28;20025;-70
2021/12/17 04:24:33;;;;;;;1.30;0.30;;;18.60;61.10;;;;;;4995980;28;20081;-69
2021/12/17 04:26:58;;;;;;;0.40;0.40;;;18.60;61.20;;;;;;4996704;28;20030;-69
2021/12/17 04:29:25;;;;;;;0.32;0.32;;;18.60;61.20;;;;;;4995830;28;20469;-69
2021/12/17 04:31:55;;;;;;;0.35;0.35;;;18.60;61.20;;;;;;4995087;28;20030;-70
2021/12/17 04:34:21;;;;;;;0.47;0.30;;;18.60;61.30;;;;;;4994884;28;20473;-69
2021/12/17 04:36:49;;;;;;;0.30;0.30;;;18.60;61.30;;;;;;4994878;28;20045;-69
2021/12/17 04:39:20;;;;;;;0.75;0.40;;;18.60;61.20;;;;;;4994916;28;20026;-70
2021/12/17 04:44:22;;;;;;;0.47;0.30;;;18.60;61.40;;;;;;5008903;28;20022;-70
2021/12/17 04:58:01;;;;;;;0.30;0.30;;;18.60;61.40;;;;;;4962387;28;20046;-69
2021/12/17 05:00:28;;;;;;;0.30;0.30;;;18.60;61.40;;;;;;5010710;28;20028;-70
2021/12/17 05:02:56;;;;;;;0.20;0.20;;;18.60;61.50;;;;;;4985890;28;20064;-70
2021/12/17 05:05:26;;;;;;;0.40;0.30;;;18.60;61.40;;;;;;5004068;28;20116;-70
2021/12/17 05:07:59;;;;;;;0.30;0.30;;;18.60;61.40;;;;;;5010369;28;20498;-70
2021/12/17 05:18:35;;;;;;;0.30;0.30;;;18.60;61.50;;;;;;4995582;28;20041;-70
2021/12/17 05:21:04;;;;;;;0.30;0.30;;;18.60;61.50;;;;;;5002960;28;20018;-70
2021/12/17 05:23:33;;;;;;;0.40;0.40;;;18.60;61.50;;;;;;4986115;28;20030;-70
2021/12/17 05:26:01;;;;;;;0.70;0.30;;;18.60;61.50;;;;;;5009319;28;20029;-70
2021/12/17 05:28:27;;;;;;;0.28;0.28;;;18.60;61.50;;;;;;5010102;28;20030;-70
2021/12/17 05:30:54;;;;;;;0.30;0.30;;;18.60;62.60;;;;;;5002095;28;20022;-70
2021/12/17 05:33:21;;;;;;;0.30;0.30;;;18.60;61.60;;;;;;5005801;28;20048;-70
2021/12/17 05:35:47;;;;;;;0.65;0.30;;;18.60;61.50;;;;;;4994121;28;20018;-70
2021/12/17 05:38:13;;;;;;;0.40;0.40;;;18.60;61.60;;;;;;4996132;28;20022;-70
2021/12/17 05:40:39;;;;;;;0.35;0.30;;;18.60;62.60;;;;;;4997303;28;20071;-70
2021/12/17 05:43:06;;;;;;;0.30;0.30;;;18.60;61.60;;;;;;5012881;28;20104;-70
2021/12/17 05:45:47;;;;;;;0.63;0.40;;;18.60;61.60;;;;;;4998754;28;20022;-70
2021/12/17 05:48:13;;;;;;;0.68;0.30;;;18.60;61.60;;;;;;4994004;28;20058;-70
2021/12/17 05:50:40;;;;;;;0.25;0.25;;;18.60;61.70;;;;;;4993644;28;20050;-70
2021/12/17 05:53:06;;;;;;;0.22;0.22;;;18.60;61.70;;;;;;4977429;28;20022;-70
2021/12/17 05:55:32;;;;;;;0.55;0.38;;;18.60;61.60;;;;;;4993166;28;20093;-70
2021/12/17 05:57:57;;;;;;;0.80;0.30;;;18.60;61.60;;;;;;4977462;28;20022;-70
2021/12/17 06:00:23;;;;;;;0.55;0.40;;;18.60;61.70;;;;;;4993352;28;20026;-70
2021/12/17 06:02:50;;;;;;;0.38;0.38;;;18.60;61.70;;;;;;5000664;28;20026;-70
2021/12/17 06:05:16;;;;;;;0.40;0.32;;;18.60;61.70;;;;;;4996681;28;20046;-70
2021/12/17 06:07:41;;;;;;;0.25;0.25;;;18.60;61.70;;;;;;4996666;28;20376;-70
2021/12/17 06:10:09;;;;;;;0.22;0.22;;;18.60;61.70;;;;;;5012693;28;20056;-69
2021/12/17 06:12:35;;;;;;;0.25;0.17;;;18.60;61.70;;;;;;4996799;28;20029;-70
2021/12/17 06:15:02;;;;;;;0.60;0.50;;;18.60;61.70;;;;;;5012941;28;20045;-70
2021/12/17 06:17:28;;;;;;;0.38;0.30;;;18.60;61.80;;;;;;5012840;28;20028;-69
2021/12/17 06:19:53;;;;;;;0.30;0.30;;;18.60;61.70;;;;;;5014002;28;20018;-69
2021/12/17 06:22:19;;;;;;;0.52;0.40;;;18.60;61.80;;;;;;4996249;28;20081;-70
2021/12/17 06:24:45;;;;;;;0.20;0.20;;;18.50;61.80;;;;;;5012416;28;20018;-70
2021/12/17 06:27:15;;;;;;;0.25;0.20;;;18.50;61.80;;;;;;5012492;28;20026;-70
2021/12/17 06:29:40;;;;;;;1.77;0.30;;;18.60;61.80;;;;;;5012622;28;20438;-70
2021/12/17 06:32:07;;;;;;;0.30;0.30;;;18.50;62.80;;;;;;5012775;28;20042;-70
2021/12/17 06:34:32;;;;;;;1.02;0.40;;;18.50;61.80;;;;;;4979658;28;20025;-70
2021/12/17 06:36:58;;;;;;;0.35;0.30;;;18.50;61.90;;;;;;5013572;28;20041;-70
2021/12/17 06:39:24;;;;;;;0.40;0.40;;;18.50;61.80;;;;;;5012950;28;20029;-70
2021/12/17 06:41:50;;;;;;;0.20;0.20;;;18.50;61.80;;;;;;5012369;28;20036;-70
2021/12/17 06:44:20;;;;;;;0.30;0.30;;;18.50;61.80;;;;;;5011950;28;20025;-70
2021/12/17 06:46:55;;;;;;;0.40;0.40;;;18.60;62.90;;;;;;5013526;28;20030;-69
2021/12/17 07:10:40;;;;;;;0.20;0.20;;;18.50;62.10;;;;;;4977248;28;20030;-69
2021/12/17 07:40:07;;;;;;;0.45;0.20;;;18.40;62.20;;;;;;4926101;29;20510;-70
2021/12/17 07:42:33;;;;;;;0.30;0.30;;;18.50;62.30;;;;;;4913812;29;20024;-70
2021/12/17 07:44:59;;;;;;;0.20;0.20;;;18.50;62.30;;;;;;4914602;29;20514;-70
2021/12/17 07:47:25;;;;;;;0.30;0.30;;;18.50;62.30;;;;;;4913087;29;20087;-70
2021/12/17 07:49:50;;;;;;;0.40;0.40;;;18.50;62.30;;;;;;4922708;29;20047;-70
2021/12/17 07:52:16;;;;;;;0.40;0.40;;;18.50;62.30;;;;;;4912690;29;20167;-70
2021/12/17 07:54:42;;;;;;;0.38;0.38;;;18.50;62.30;;;;;;4897812;29;20029;-70
2021/12/17 07:57:07;;;;;;;0.20;0.20;;;18.50;62.30;;;;;;4907448;29;20032;-70
2021/12/17 07:59:33;;;;;;;0.60;0.45;;;18.50;62.30;;;;;;4904069;29;20040;-70
2021/12/17 08:01:59;;;;;;;0.30;0.30;;;18.50;62.30;;;;;;4901241;29;20025;-70
2021/12/17 08:04:25;;;;;;;0.93;0.30;;;18.50;62.40;;;;;;4945397;28;20427;-70
2021/12/17 08:06:50;;;;;;;0.20;0.20;;;18.50;62.40;;;;;;4991268;28;20047;-69
2021/12/17 08:09:16;;;;;;;0.40;0.40;;;18.50;62.40;;;;;;4989427;28;20037;-70
2021/12/17 08:11:42;;;;;;;0.40;0.40;;;18.50;62.40;;;;;;5002052;28;20030;-70
2021/12/17 08:14:12;;;;;;;0.50;0.50;;;18.50;62.30;;;;;;5004174;28;20579;-70
2021/12/17 08:16:48;;;;;;;0.50;0.50;;;18.50;62.20;;;;;;4982588;28;20095;-70
2021/12/17 08:24:54;;;;;;;0.52;0.52;;;18.50;62.20;;;;;;4969778;28;20126;-71
2021/12/17 08:30:22;;;;;;;3.55;0.68;;;18.50;62.20;;;;;;4957382;28;20058;-70
2021/12/17 08:32:47;;;;;;;0.55;0.55;;;18.50;62.30;;;;;;4969615;28;20114;-70
2021/12/17 08:35:13;;;;;;;0.55;0.55;;;18.50;62.10;;;;;;4969781;28;20569;-70
2021/12/17 08:37:39;;;;;;;0.50;0.50;;;18.50;62.10;;;;;;4952811;28;20394;-70
2021/12/17 08:40:05;;;;;;;0.60;0.60;;;18.50;62.10;;;;;;4950963;29;20409;-70
2021/12/17 08:42:31;;;;;;;0.50;0.50;;;18.50;62.10;;;;;;4969348;28;20027;-70
2021/12/17 08:44:59;;;;;;;1.10;0.80;;;18.50;62.10;;;;;;4941157;28;20034;-69
2021/12/17 08:47:25;;;;;;;0.60;0.60;;;18.60;62.10;;;;;;4954388;28;20034;-70
2021/12/17 08:49:51;;;;;;;1.08;0.60;;;18.60;62.10;;;;;;4961200;28;20039;-69
2021/12/17 08:52:17;;;;;;;0.85;0.70;;;18.60;62.00;;;;;;4962686;28;20026;-69
2021/12/17 08:54:42;;;;;;;1.40;0.80;;;18.60;62.10;;;;;;4969646;28;20050;-69
2021/12/17 08:57:09;;;;;;;1.30;0.75;;;18.60;62.20;;;;;;4952265;28;20031;-69
2021/12/17 08:59:35;;;;;;;1.77;0.90;;;18.70;62.40;;;;;;4966034;28;20030;-69
2021/12/17 09:02:00;;;;;;;0.70;0.70;;;18.70;62.30;;;;;;4971038;28;20034;-69
2021/12/17 09:04:27;;;;;;;0.98;0.68;;;18.70;62.20;;;;;;4993549;28;20023;-69
2021/12/17 09:06:54;;;;;;;2.88;0.68;;;18.70;62.20;;;;;;5003005;28;20042;-69
2021/12/17 09:09:21;;;;;;;1.02;0.70;;;18.70;62.20;;;;;;5013225;28;20073;-69
2021/12/17 09:11:46;;;;;;;0.65;0.55;;;18.70;62.20;;;;;;4997069;28;20500;-69
2021/12/17 09:14:12;;;;;;;0.95;0.80;;;18.70;62.10;;;;;;5010596;28;20030;-69
2021/12/17 09:16:38;;;;;;;1.52;0.70;;;18.70;62.10;;;;;;5005305;28;20426;-69
2021/12/17 09:19:04;;;;;;;2.03;0.70;;;18.70;62.10;;;;;;4995991;28;20018;-69
2021/12/17 09:21:30;;;;;;;0.90;0.70;;;18.70;62.10;;;;;;5005994;28;20018;-69
2021/12/17 09:23:56;;;;;;;2.28;0.80;;;18.70;62.10;;;;;;4987587;28;20508;-69
2021/12/17 09:26:22;;;;;;;0.68;0.68;;;18.80;62.10;;;;;;4984066;28;20033;-69
2021/12/17 09:28:48;;;;;;;1.73;0.57;;;18.80;62.10;;;;;;5005934;28;20108;-70
2021/12/17 09:31:14;;;;;;;1.48;0.65;;;18.70;62.10;;;;;;5000527;28;20022;-69
2021/12/17 09:33:41;;;;;;;0.70;0.70;;;18.80;62.10;;;;;;5003112;28;20037;-69
2021/12/17 09:36:07;;;;;;;0.90;0.77;;;18.80;62.10;;;;;;4983917;28;20057;-69
2021/12/17 09:38:33;;;;;;;0.95;0.60;;;18.80;62.00;;;;;;5002457;28;20053;-69
2021/12/17 09:40:59;;;;;;;1.35;0.85;;;18.80;62.10;;;;;;5013752;28;20456;-69
2021/12/17 09:43:24;;;;;;;1.10;0.75;;;18.80;62.00;;;;;;4997132;28;20026;-69
2021/12/17 09:45:50;;;;;;;0.80;0.70;;;18.80;62.00;;;;;;5009676;28;20026;-69
2021/12/17 09:48:17;;;;;;;0.77;0.68;;;18.80;62.00;;;;;;5007837;28;20032;-69
2021/12/17 09:50:42;;;;;;;0.80;0.63;;;18.80;62.00;;;;;;4988079;28;20014;-69
2021/12/17 09:53:08;;;;;;;1.17;0.60;;;18.80;62.00;;;;;;5000420;28;20045;-69
2021/12/17 09:55:33;;;;;;;0.70;0.60;;;18.80;61.90;;;;;;5009827;28;20022;-69
2021/12/17 09:57:59;;;;;;;1.52;0.70;;;18.80;61.90;;;;;;5011540;28;20410;-69
2021/12/17 10:00:26;;;;;;;0.85;0.68;;;18.80;61.90;;;;;;4998172;28;20026;-71
2021/12/17 10:02:52;;;;;;;1.77;0.60;;;18.80;61.90;;;;;;5004109;28;20022;-70
2021/12/17 10:05:36;;;;;;;0.73;0.60;;;18.80;61.90;;;;;;4991754;28;20057;-67
2021/12/17 10:08:17;;;;;;;0.95;0.70;;;18.80;61.70;;;;;;5000529;28;20100;-72
2021/12/17 10:10:57;;;;;;;2.13;0.60;;;18.80;61.90;;;;;;4988595;28;20544;-71
2021/12/17 10:13:27;;;;;;;1.63;0.70;;;18.80;61.90;;;;;;5003602;28;20069;-71
2021/12/17 10:16:06;;;;;;;0.85;0.60;;;18.80;61.90;;;;;;5001852;28;20053;-72
2021/12/17 10:18:42;;;;;;;1.02;0.70;;;18.80;61.90;;;;;;4982855;28;20031;-72
2021/12/17 10:21:10;;;;;;;0.70;0.70;;;18.80;61.90;;;;;;5011693;28;20087;-72
2021/12/17 10:23:36;;;;;;;2.58;0.85;;;18.80;61.90;;;;;;5010403;28;20487;-72
2021/12/17 10:26:02;;;;;;;0.82;0.68;;;18.80;61.90;;;;;;5004903;28;20030;-72
2021/12/17 10:28:28;;;;;;;1.50;1.15;;;18.80;61.80;;;;;;5002366;28;20019;-72
2021/12/17 10:30:55;;;;;;;6.22;1.05;;;18.80;61.90;;;;;;4998546;28;20113;-72
2021/12/17 10:33:23;;;;;;;1.00;0.80;;;18.80;61.90;;;;;;5001408;28;20060;-69
2021/12/17 10:35:51;;;;;;;2.00;1.20;;;18.90;62.00;;;;;;5005197;28;20069;-71
2021/12/17 10:38:23;;;;;;;1.27;1.08;;;18.90;62.10;;;;;;5002478;28;20018;-72
2021/12/17 10:46:08;;;;;;;1.17;1.05;;;19.00;62.10;;;;;;4993250;28;20507;-77
2021/12/17 10:49:12;;;;;;;1.55;0.90;;;19.00;62.10;;;;;;5012728;28;20018;-77
2021/12/17 10:54:08;;;;;;;2.05;1.00;;;19.00;62.20;;;;;;5009082;28;20014;-76
2021/12/17 10:56:37;;;;;;;2.92;1.20;;;19.00;62.10;;;;;;5009515;28;20037;-78
2021/12/17 10:59:10;;;;;;;1.10;1.00;;;19.10;62.20;;;;;;5004361;28;20019;-77
2021/12/17 11:01:41;;;;;;;1.40;0.80;;;19.10;62.20;;;;;;5003791;28;20497;-77
2021/12/17 11:04:07;;;;;;;1.45;0.90;;;19.10;63.30;;;;;;5011165;28;20014;-77
2021/12/17 11:06:56;;;;;;;1.30;1.20;;;19.10;62.30;;;;;;5009190;28;20107;-79
2021/12/17 11:09:42;;;;;;;1.10;1.00;;;19.20;62.00;;;;;;5001735;28;20057;-80
2021/12/17 11:12:13;;;;;;;0.85;0.75;;;19.20;62.00;;;;;;4996613;28;20484;-79
2021/12/17 11:14:40;;;;;;;0.93;0.90;;;19.20;62.20;;;;;;5004234;28;20362;-75
2021/12/17 11:17:05;;;;;;;1.90;1.10;;;19.30;62.10;;;;;;5002318;28;20026;-74
2021/12/17 11:19:31;;;;;;;2.03;0.90;;;19.30;62.20;;;;;;4983502;28;20021;-74
2021/12/17 11:21:57;;;;;;;4.13;1.10;;;19.30;62.10;;;;;;5008059;28;20412;-75
2021/12/17 11:24:23;;;;;;;1.98;0.90;;;19.30;62.10;;;;;;4992890;28;20026;-75
2021/12/17 11:26:50;;;;;;;1.92;0.90;;;19.40;62.00;;;;;;4986365;28;20053;-76
2021/12/17 11:29:18;;;;;;;1.00;1.00;;;19.40;61.90;;;;;;5006561;28;20115;-75
2021/12/17 11:31:44;;;;;;;1.10;0.90;;;19.40;61.80;;;;;;4994723;28;20084;-75
2021/12/17 11:34:11;;;;;;;0.82;0.75;;;19.40;62.80;;;;;;5002562;28;20031;-75
2021/12/17 11:36:37;;;;;;;1.30;0.80;;;19.50;61.70;;;;;;4994779;28;20516;-75
2021/12/17 11:39:10;;;;;;;2.78;1.05;;;19.40;61.80;;;;;;4999394;28;20022;-76
2021/12/17 11:42:18;;;;;;;2.25;1.00;;;19.40;61.70;;;;;;5005510;28;20022;-75
2021/12/17 11:44:53;;;;;;;1.25;0.93;;;19.50;61.70;;;;;;4995131;28;20077;-75
2021/12/17 11:47:19;;;;;;;1.35;0.90;;;19.50;61.80;;;;;;5005496;28;20440;-76
2021/12/17 11:49:50;;;;;;;1.15;0.90;;;19.50;61.80;;;;;;5006869;28;20061;-84
2021/12/17 11:52:41;;;;;;;1.27;0.90;;;19.50;61.60;;;;;;5001615;28;20141;-88
2021/12/17 11:55:35;;;;;;;1.05;0.90;;;19.60;61.40;;;;;;5000463;28;20041;-80
2021/12/17 11:58:06;;;;;;;1.98;1.02;;;19.60;61.40;;;;;;5003214;28;20065;-85
2021/12/17 12:00:49;;;;;;;0.73;0.73;;;19.60;61.50;;;;;;4986402;28;20108;-78
2021/12/17 12:03:17;;;;;;;1.75;0.98;;;19.60;61.30;;;;;;4993676;28;20480;-80
2021/12/17 12:05:53;;;;;;;0.90;0.90;;;19.60;61.60;;;;;;4988789;28;20045;-83
2021/12/17 12:08:51;;;;;;;0.85;0.85;;;19.70;61.40;;;;;;4985589;28;20459;-80
2021/12/17 12:11:18;;;;;;;1.35;0.90;;;19.70;61.10;;;;;;5007404;28;20022;-74
2021/12/17 12:13:49;;;;;;;0.90;0.90;;;19.60;61.30;;;;;;5008258;28;20112;-72
2021/12/17 12:16:25;;;;;;;1.10;1.00;;;19.70;61.40;;;;;;5002195;28;20476;-73
2021/12/17 12:18:51;;;;;;;1.15;1.10;;;19.70;61.10;;;;;;4997544;28;20026;-72
2021/12/17 12:21:20;;;;;;;1.67;1.20;;;19.70;61.20;;;;;;5005365;28;20022;-72
2021/12/17 12:24:10;;;;;;;3.00;1.10;;;19.70;61.10;;;;;;4997482;28;20037;-72
2021/12/17 12:26:41;;;;;;;4.70;1.60;;;19.70;60.70;;;;;;4993062;28;20492;-78
2021/12/17 12:29:09;;;;;;;3.42;1.10;;;19.60;61.00;;;;;;4978389;28;20030;-73
2021/12/17 12:31:38;;;;;;;2.25;1.20;;;19.60;61.00;;;;;;5003508;28;20061;-74
2021/12/17 12:34:20;;;;;;;4.63;1.42;;;19.60;61.10;;;;;;5004059;28;20022;-75
2021/12/17 12:37:22;;;;;;;3.40;1.20;;;19.70;61.00;;;;;;5007112;28;20109;-76
2021/12/17 12:39:50;;;;;;;1.55;1.27;;;19.70;60.90;;;;;;5000762;28;20026;-76
2021/12/17 12:42:32;;;;;;;1.77;1.23;;;19.70;61.20;;;;;;5008112;28;20072;-76
2021/12/17 12:44:57;;;;;;;3.03;1.08;;;19.80;61.10;;;;;;5006307;28;20464;-75
2021/12/17 12:47:26;;;;;;;2.20;0.93;;;19.70;61.20;;;;;;5001843;28;20097;-75
2021/12/17 12:49:51;;;;;;;2.90;0.95;;;19.80;61.20;;;;;;5004709;28;20038;-75
2021/12/17 12:52:30;;;;;;;1.75;0.80;;;19.70;61.00;;;;;;5007140;28;20022;-76
2021/12/17 12:54:57;;;;;;;1.70;1.05;;;19.80;61.10;;;;;;5003816;28;20030;-76
2021/12/17 12:57:34;;;;;;;1.90;0.98;;;19.80;61.10;;;;;;5007866;28;20022;-75
2021/12/17 13:00:05;;;;;;;2.35;1.20;;;19.80;60.90;;;;;;5007408;28;20025;-76
2021/12/17 13:02:31;;;;;;;1.73;1.00;;;19.80;61.00;;;;;;4996879;28;20014;-76
2021/12/17 13:04:58;;;;;;;1.48;1.10;;;19.80;61.10;;;;;;5009082;28;20072;-76
2021/12/17 13:07:35;;;;;;;2.17;1.13;;;19.90;61.00;;;;;;5007323;28;20100;-76
2021/12/17 13:10:15;;;;;;;1.23;0.98;;;19.90;60.80;;;;;;5006618;28;20368;-76
2021/12/17 13:12:47;;;;;;;5.07;1.20;;;19.90;60.80;;;;;;4993970;28;20037;-75
2021/12/17 13:15:32;;;;;;;3.00;1.08;;;19.90;61.00;;;;;;4990118;28;20034;-76
2021/12/17 13:23:47;;;;;;;;;;;19.90;60.80;;;;;;4994872;28;20037;-75
2021/12/17 13:26:12;;;;;;;1.92;1.05;;;19.80;60.50;;;;;;5006960;28;19912;-78
2021/12/17 13:29:09;;;;;;;1.42;1.08;;;19.80;60.90;;;;;;5003018;28;20026;-71
2021/12/17 13:31:40;;;;;;;3.38;1.17;;;19.90;60.90;;;;;;5002873;28;20458;-71
2021/12/17 13:34:17;;;;;;;1.52;0.80;;;19.90;60.90;;;;;;5013390;28;20099;-69
2021/12/17 13:36:50;;;;;;;1.23;0.88;;;20.00;60.80;;;;;;5004853;28;20484;-68
2021/12/17 13:39:16;;;;;;;1.48;1.10;;;19.90;60.70;;;;;;5006997;28;20481;-69
2021/12/17 13:41:42;;;;;;;1.33;1.02;;;19.90;60.60;;;;;;5002438;28;20113;-69
2021/12/17 13:44:25;;;;;;;3.58;0.90;;;19.90;60.60;;;;;;5007489;28;20018;-69
2021/12/17 13:46:51;;;;;;;;;;;20.00;60.30;;;;;;4988320;28;20018;-69
2021/12/17 13:49:18;;;;;;;2.20;0.80;;;19.80;60.20;;;;;;5001820;28;19909;-69
2021/12/17 13:51:44;;;;;;;1.02;0.93;;;19.80;60.70;;;;;;5006071;28;20109;-68
2021/12/17 13:54:09;;;;;;;0.93;0.73;;;19.80;60.60;;;;;;5004643;28;20093;-68
2021/12/17 13:56:35;;;;;;;1.45;0.90;;;19.80;60.50;;;;;;5007965;28;20076;-69
2021/12/17 13:59:01;;;;;;;0.90;0.90;;;19.80;60.50;;;;;;5005457;28;20017;-69
2021/12/17 14:01:27;;;;;;;1.65;1.10;;;19.80;60.40;;;;;;5006861;28;20125;-69
2021/12/17 14:03:53;;;;;;;0.75;0.75;;;19.80;60.40;;;;;;5004034;28;20467;-68
2021/12/17 14:06:24;;;;;;;0.73;0.73;;;19.80;60.40;;;;;;5006103;28;20049;-68
2021/12/17 14:08:53;;;;;;;1.25;1.05;;;19.80;60.40;;;;;;5002210;28;20026;-68
2021/12/17 14:11:29;;;;;;;1.10;1.00;;;19.80;60.40;;;;;;5003967;28;20109;-68
2021/12/17 14:13:54;;;;;;;1.65;1.00;;;19.80;60.40;;;;;;5001045;28;20021;-69
2021/12/17 14:16:33;;;;;;;1.08;0.95;;;19.80;60.30;;;;;;4999688;28;20485;-68
2021/12/17 14:19:00;;;;;;;1.02;0.90;;;19.80;60.20;;;;;;5000384;28;20049;-68
2021/12/17 14:21:29;;;;;;;1.20;0.90;;;19.80;60.30;;;;;;5010758;28;20105;-68
2021/12/17 14:23:55;;;;;;;1.33;0.95;;;19.80;60.20;;;;;;5007863;28;20049;-79
2021/12/17 14:26:27;;;;;;;1.42;1.15;;;19.80;60.40;;;;;;5007634;28;20075;-79
2021/12/17 14:28:53;;;;;;;1.15;1.05;;;19.80;60.40;;;;;;5003197;28;20081;-79
2021/12/17 14:31:19;;;;;;;1.00;0.82;;;19.80;60.40;;;;;;4999834;28;20029;-79
2021/12/17 14:33:48;;;;;;;2.30;1.17;;;19.80;60.50;;;;;;5005115;28;20075;-79
2021/12/17 14:36:17;;;;;;;1.55;1.00;;;19.80;60.40;;;;;;4999084;28;20076;-79
2021/12/17 14:38:47;;;;;;;1.35;1.08;;;19.80;60.50;;;;;;5002839;28;20018;-77
2021/12/17 14:41:21;;;;;;;3.75;1.08;;;19.80;61.00;;;;;;5006344;28;20046;-83
2021/12/17 14:44:07;;;;;;;1.30;0.90;;;19.80;60.40;;;;;;4990839;28;20045;-86
2021/12/17 14:46:57;;;;;;;1.40;1.05;;;19.90;60.50;;;;;;4994688;28;20565;-82
2021/12/17 15:03:58;;;;;;;0.93;0.93;;;19.90;60.50;;;;;;5006486;28;20019;-73
2021/12/17 15:05:54;;;;;;;1.00;1.00;;;19.90;60.60;;;;;;4989063;28;20046;-71
2021/12/17 15:08:21;;;;;;;1.35;0.90;;;19.90;60.40;;;;;;5002487;28;20028;-71
2021/12/17 15:10:47;;;;;;;1.15;1.10;;;19.90;60.40;;;;;;5003212;28;20522;-70
2021/12/17 15:13:13;;;;;;;1.13;0.73;;;19.90;60.40;;;;;;5000997;28;20033;-70
2021/12/17 15:15:39;;;;;;;1.25;1.15;;;19.90;60.40;;;;;;4992220;28;20073;-70
2021/12/17 15:18:14;;;;;;;0.95;0.90;;;19.90;60.20;;;;;;5006597;28;20117;-70
2021/12/17 15:20:40;;;;;;;2.42;1.10;;;19.90;60.20;;;;;;5007663;28;20392;-70
2021/12/17 15:23:06;;;;;;;1.30;1.20;;;19.90;60.20;;;;;;5000609;28;20025;-70
2021/12/17 15:25:32;;;;;;;1.10;1.00;;;19.90;60.10;;;;;;5005966;28;20374;-70
2021/12/17 15:27:58;;;;;;;1.25;1.00;;;19.90;60.00;;;;;;5007583;28;20100;-70
2021/12/17 15:30:28;;;;;;;1.70;1.40;;;19.90;60.00;;;;;;4992638;28;20492;-70
2021/12/17 15:32:54;;;;;;;1.15;1.05;;;19.90;60.00;;;;;;5007724;28;20054;-70
2021/12/17 15:35:22;;;;;;;2.08;1.20;;;19.90;60.00;;;;;;5006912;28;20180;-70
2021/12/17 15:37:49;;;;;;;1.25;1.15;;;19.80;60.00;;;;;;4999672;28;20489;-70
2021/12/17 15:40:14;;;;;;;1.35;1.25;;;19.80;59.90;;;;;;5004762;28;20062;-70
2021/12/17 15:42:40;;;;;;;1.77;1.60;;;19.80;59.90;;;;;;4981895;28;20503;-70
2021/12/17 15:45:06;;;;;;;1.30;1.20;;;19.80;59.90;;;;;;5004453;28;20032;-70
2021/12/17 15:47:32;;;;;;;1.00;1.00;;;19.80;59.90;;;;;;5008998;28;20495;-70
2021/12/17 15:49:58;;;;;;;1.58;1.20;;;19.80;59.90;;;;;;4982651;28;20029;-70
2021/12/17 15:52:23;;;;;;;1.40;1.30;;;19.80;60.10;;;;;;5003096;28;20391;-70
2021/12/17 15:54:49;;;;;;;1.20;1.10;;;19.80;59.90;;;;;;5009636;28;20057;-70
2021/12/17 15:57:16;;;;;;;1.67;1.20;;;19.80;59.90;;;;;;5007706;28;20042;-70
2021/12/17 15:59:45;;;;;;;1.75;1.27;;;19.80;59.90;;;;;;5009992;28;20018;-70
2021/12/17 16:02:11;;;;;;;1.27;1.15;;;19.80;59.90;;;;;;5001874;28;20025;-70
2021/12/17 16:04:40;;;;;;;1.30;1.20;;;19.70;59.80;;;;;;5006944;28;20377;-70
2021/12/17 16:07:06;;;;;;;1.38;1.27;;;19.70;59.80;;;;;;5009002;28;20523;-70
2021/12/17 16:22:48;;;;;;;1.40;1.30;;;19.70;59.80;;;;;;5008137;28;20069;-70
2021/12/17 16:25:14;;;;;;;1.10;1.10;;;19.60;59.70;;;;;;5008916;28;20042;-70
2021/12/17 16:27:40;;;;;;;1.00;1.00;;;19.60;59.70;;;;;;5008086;28;20065;-70
2021/12/17 16:30:06;;;;;;;1.05;1.00;;;19.70;59.70;;;;;;5014844;28;20536;-70
2021/12/17 16:32:32;;;;;;;1.67;1.02;;;19.70;59.70;;;;;;5011768;28;20040;-70